createdAt,value
2018-02-05T00:11:01.016Z,1.6
2018-02-05T00:26:00.999Z,1.6
2018-02-05T00:41:01.002Z,1.6
2018-02-05T00:56:01.010Z,1.6
2018-02-05T01:11:00.965Z,1.6
2018-02-05T01:26:01.020Z,1.5
2018-02-05T01:41:01.017Z,1.5
2018-02-05T01:56:01.026Z,1.5
2018-02-05T02:01:00.926Z,1.4
2018-02-05T02:16:00.663Z,1.4
2018-02-05T02:31:00.678Z,1.4
2018-02-05T02:46:00.678Z,1.4
2018-02-05T03:01:00.686Z,1.3
2018-02-05T03:16:00.683Z,1.3
2018-02-05T03:31:01.761Z,1.3
2018-02-05T03:46:00.695Z,1.3
2018-02-05T04:01:00.703Z,1.3
2018-02-05T04:16:00.700Z,1.3
2018-02-05T04:26:01.059Z,1.2
2018-02-05T04:41:01.073Z,1.2
2018-02-05T04:56:01.075Z,1.2
2018-02-05T05:11:01.082Z,1.2
2018-02-05T05:26:01.106Z,1.2
2018-02-05T05:36:00.957Z,1.1
2018-02-05T05:51:01.080Z,1.1
2018-02-05T06:06:01.116Z,1.1
2018-02-05T06:16:01.121Z,1.0
2018-02-05T06:31:01.117Z,1.0
2018-02-05T06:36:01.195Z,0.9
2018-02-05T06:51:01.138Z,0.9
2018-02-05T07:01:01.199Z,0.8
2018-02-05T07:16:01.138Z,0.8
2018-02-05T07:31:01.130Z,0.8
2018-02-05T07:46:01.107Z,0.7
2018-02-05T08:01:01.155Z,0.7
2018-02-05T08:16:01.112Z,0.7
2018-02-05T08:26:01.122Z,0.6
2018-02-05T08:41:01.129Z,0.6
2018-02-05T08:56:01.085Z,0.6
2018-02-05T09:11:01.134Z,0.6
2018-02-05T09:26:01.117Z,0.6
2018-02-05T09:36:02.156Z,0.7
2018-02-05T09:51:01.215Z,0.7
2018-02-05T10:01:01.228Z,0.8
2018-02-05T10:16:01.201Z,0.8
2018-02-05T10:31:01.145Z,0.8
2018-02-05T10:46:01.157Z,0.8
2018-02-05T10:51:01.135Z,0.9
2018-02-05T11:06:01.139Z,0.9
2018-02-05T11:21:01.164Z,0.9
2018-02-05T11:31:06.171Z,1.0
2018-02-05T11:46:01.305Z,1.1
2018-02-05T12:01:01.493Z,1.2
2018-02-05T12:16:01.315Z,1.3
2018-02-05T12:31:01.163Z,1.3
2018-02-05T12:41:01.200Z,1.4
2018-02-05T12:51:01.202Z,1.5
2018-02-05T12:56:01.082Z,1.6
2018-02-05T13:06:01.097Z,1.7
2018-02-05T13:11:01.133Z,1.8
2018-02-05T13:21:01.205Z,1.9
2018-02-05T13:26:01.075Z,2.0
2018-02-05T13:31:01.057Z,2.1
2018-02-05T13:41:01.179Z,2.2
2018-02-05T13:56:01.207Z,2.2
2018-02-05T14:06:01.342Z,2.1
2018-02-05T14:16:01.199Z,2.0
2018-02-05T14:21:01.211Z,1.9
2018-02-05T14:31:01.215Z,1.8
2018-02-05T14:36:01.214Z,1.7
2018-02-05T14:46:01.275Z,1.6
2018-02-05T14:51:01.221Z,1.5
2018-02-05T15:06:01.216Z,1.5
2018-02-05T15:11:01.212Z,1.4
2018-02-05T15:26:01.230Z,1.4
2018-02-05T15:31:01.208Z,1.3
2018-02-05T15:46:01.231Z,1.2
2018-02-05T16:01:01.308Z,1.2
2018-02-05T16:06:01.269Z,1.1
2018-02-05T16:21:01.214Z,1.0
2018-02-05T16:36:01.243Z,1.0
2018-02-05T16:41:01.254Z,0.9
2018-02-05T16:56:01.259Z,0.9
2018-02-05T17:06:01.262Z,0.8
2018-02-05T17:21:01.109Z,0.8
2018-02-05T17:31:01.209Z,0.7
2018-02-05T17:46:01.283Z,0.6
2018-02-05T18:01:01.344Z,0.5
2018-02-05T18:11:02.328Z,0.4
2018-02-05T18:21:01.218Z,0.3
2018-02-05T18:31:01.370Z,0.2
2018-02-05T18:36:01.170Z,0.1
2018-02-05T18:51:01.227Z,-0.1
2018-02-05T18:56:01.166Z,-0.2
2018-02-05T19:06:01.249Z,-0.3
2018-02-05T19:11:01.236Z,-0.4
2018-02-05T19:16:01.168Z,-0.5
2018-02-05T19:21:06.210Z,-0.6
2018-02-05T19:31:01.245Z,-0.7
2018-02-05T19:36:01.179Z,-0.8
2018-02-05T19:46:01.242Z,-0.9
2018-02-05T20:01:01.353Z,-1.0
2018-02-05T20:16:01.242Z,-1.0
2018-02-05T20:31:01.261Z,-1.1
2018-02-05T20:46:01.255Z,-1.1
2018-02-05T21:01:01.354Z,-1.2
2018-02-05T21:16:01.356Z,-1.2
2018-02-05T21:31:01.422Z,-1.3
2018-02-05T21:46:01.259Z,-1.3
2018-02-05T21:56:01.355Z,-1.4
2018-02-05T22:11:01.379Z,-1.4
2018-02-05T22:21:01.340Z,-1.5
2018-02-05T22:36:01.363Z,-1.5
2018-02-05T22:46:01.300Z,-1.6
2018-02-05T23:01:01.289Z,-1.7
2018-02-05T23:11:01.402Z,-1.8
2018-02-05T23:21:01.347Z,-1.9
2018-02-05T23:31:01.359Z,-2.0
2018-02-05T23:36:01.238Z,-2.1
2018-02-05T23:41:01.292Z,-2.2
2018-02-05T23:51:01.360Z,-2.3
2018-02-05T23:56:01.240Z,-2.4
